Venetia, PA (15367)

2:55 PM EST on February 06, 2016 (GMT -0500)
Bower Hill Rd | | Change Station
CLOSE
Current Station
Personal Weather Station
Location: Venetia, PA
Elevation: 1044 ft
Nearby Weather Stations

Elev 1044 ft 40.24 °N, 80.06 °W | Updated 27 seconds ago

Clear
Clear
44.4 °F
Feels Like 44 °F
N
0.9
Wind Variable Wind from South
Gusts 7.0 mph

Today
High -- | Low -- °F
--% Chance of Precip.
Yesterday
High -- | Low -- °F
Precip. -- in
Pressure 30.25 in
Visibility 10.0 miles
Clouds Clear
Windchill 44 °F
Dew Point 20 °F
Humidity 38%
Rainfall 0.00 in
Snow Depth Not available.
7:24 AM 5:44 PM
Waning Crescent, 4% visible
METAR KAGC 061853Z 26013G21KT 10SM CLR 06/M08 A3020 RMK AO2 SLP244 T00611078
Pressure 30.25 in
Visibility 10.0 miles
Clouds Clear
Windchill 44 °F
Dew Point 20 °F
Humidity 38%
Rainfall 0.00 in
Snow Depth Not available.
7:24 AM 5:44 PM
Waning Crescent, 4% visible
METAR KAGC 061853Z 26013G21KT 10SM CLR 06/M08 A3020 RMK AO2 SLP244 T00611078

10-Day Weather Forecast

Almanac

Astronomy

Feb. 06, 2016 Rise Set
Actual Time
Civil Twilight
Nautical Twilight
Astronomical Twilight
Moon
Length of Visible Light
Length of Day
Tomorrow will be .
, % of the Moon is Illuminated

Today's Extremes

State Highs State Lows

Community

WunderPhotos

Upload Photos

1,891,037 photos uploaded!

WunderBlog® & News

Nearby

Air Quality

  Air Quality AQ Index Pollutant
Not available.

Snow Depth

Station Depth Elevation

Earthquake Activity

City Distance Mag. Time & Date
Minimum magnitude displayed is 2.5.

Coastal Water Temperatures

Place Temperature

Stations

Nearby Weather Stations

Station Location Temp. Windchill Dew Point Humidity Wind Precip. Elev Updated Type
                   

Watches & Warnings

There are currently no watches in effect.